Pagrindinis puslapis
METAR-TAF:

METAR-TAF

Oro uostai :

Worcester Regional Airport

Vusteris, Masačusetsas, Jungtinės Amerikos Valstijos

platuma: 42-16-14N, ilguma: 071-52-23W, Aukštis: 307 m

Dabartinis oras

Ataskaita buvo paskelbta 28 minutes, ne 06:54 UTC
Vėjas 13 kt iš Vakarų/Pietvakarių su gūsio iki 20 kt
Temperatūra -4°C
Drėgmė 46%
Slėgis 1003 hPa
Matomumas: 16.1 km
Su prošvaistėmis ne aukštis 6000 ft

METAR: KORH 280654Z AUTO 25013G20KT 10SM BKN060 M04/M14 A2962 RMK AO2 SLP043 T10391139

Laikas: 02:22 (07:22 UTC)

Prognozė

Ataskaita buvo paskelbta 1 valandą ir 58 minutes, ne 05:24 UTC
Prognozė galioja nuo 28 metu 06 UTC su 29 metu 06 UTC
Vėjas 18 kt iš Vakarų su gūsio iki 30 kt
Matomumas: 10 km
Išsisklaidę debesys ne aukštis 5000 ft
Nuo 29 metu 0000 UTC
Vėjas 9 kt iš Vakarų
Matomumas: 10 km
Išsisklaidę debesys ne aukštis 6000 ft

TAF: KORH 280524Z 2806/2906 26018G30KT P6SM SCT050 FM290000 26009KT P6SM SCT060

Orai ataskaitas ir orų prognozės (METAR, TAF).

turimą stotys yra geltonos ir raudonos taškus žemėlapyje.

Perkelti pele per norėdami pamatyti stoties vardą.

Tada spustelėkite, norėdami matyti oro stebėjimo ir prognozės.

Norėdami pakeisti žemėlapį: spustelėkite ant žalios mygtukų su juodo kryžiaus žemyn,; žalią mygtuką su brūkšneliu, jei norite nutolinti; arba žalių rodyklių gretimoms žemėlapius.


METAR-TAF: